Accueil
METAR-TAF:

METAR-TAF

Aéroports :

Aéroport international David IV de Koutaïssi

Koutaïssi, Géorgie

latitude: 42-10-35N, longitude: 042-28-57E, altitude: 68 m

Observation

Le bulletin a été fait il y a 28 minutes, à 23:00 UTC
Vent 3 kt de direction variable
Température 20°C
Humidité 88%
Pression 1010 hPa
Visibilité 10 km ou plus
pas de nuages en-dessous de 1500 mètres et pas de cumulonimbus.

METAR: UGKO 212300Z VRB03KT CAVOK 20/18 Q1010 NOSIG

Heure: 03:28 (23:28 UTC)

Prévision

Le bulletin a été fait il y a 6 heures et 28 minutes, à 17:00 UTC
Prévision valable du 21 à 18 UTC au 22 à 18 UTC
Vent 2 kt de direction variable
Visibilité 10 km ou plus
Nuages épars à une hauteur de 3000 ft
Nuages fragmentés à une hauteur de 4500 ft
Temporairement
du 22 à 06 UTC au 22 à 16 UTC
Vent 14 kt de ouest

TAF: UGKO 211700Z 2118/2218 VRB02KT 9999 SCT030 BKN045 TX31/2211Z TN18/2200Z TEMPO 2206/2216 26014KT

Observations et prévisions météorologiques de plus de 4000 aéroports (messages METAR et TAF).

Les stations disponibles sont représentées par des disques jaunes et rouges sur la carte.

Passer la souris dessus pour voir le nom de la station.

Cliquer dessus pour voir les observations et prévisions météorologiques.

Pour changer de carte: cliquez sur les boutons verts avec une croix noire pour zoomer, sur le bouton vert avec un tiret pour effectuer un zoom arrière, ou sur les flèches vertes pour les cartes adjacentes.


METAR-TAF: